sensor_id;sensor_type;location;lat;lon;timestamp;temperature;humidity
20528;DHT22;23612;50.894;10.700;2022-09-27T00:00:32;9.70;99.90
20528;DHT22;23612;50.894;10.700;2022-09-27T00:02:57;9.70;99.90
20528;DHT22;23612;50.894;10.700;2022-09-27T00:05:23;9.80;99.90
20528;DHT22;23612;50.894;10.700;2022-09-27T00:07:48;9.70;99.90
20528;DHT22;23612;50.894;10.700;2022-09-27T00:10:14;9.80;99.90
20528;DHT22;23612;50.894;10.700;2022-09-27T00:12:40;9.80;99.90
20528;DHT22;23612;50.894;10.700;2022-09-27T00:15:07;9.70;99.90
20528;DHT22;23612;50.894;10.700;2022-09-27T00:17:34;9.80;99.90
20528;DHT22;23612;50.894;10.700;2022-09-27T00:20:00;9.80;99.90
20528;DHT22;23612;50.894;10.700;2022-09-27T00:22:27;9.80;99.90
20528;DHT22;23612;50.894;10.700;2022-09-27T00:24:53;9.80;99.90
20528;DHT22;23612;50.894;10.700;2022-09-27T00:27:18;9.80;99.90
20528;DHT22;23612;50.894;10.700;2022-09-27T00:29:45;9.80;99.90
20528;DHT22;23612;50.894;10.700;2022-09-27T00:32:13;9.80;99.90
20528;DHT22;23612;50.894;10.700;2022-09-27T00:34:39;9.80;99.90
20528;DHT22;23612;50.894;10.700;2022-09-27T00:37:05;9.90;99.90
20528;DHT22;23612;50.894;10.700;2022-09-27T00:39:30;9.80;99.90
20528;DHT22;23612;50.894;10.700;2022-09-27T00:41:56;9.90;99.90
20528;DHT22;23612;50.894;10.700;2022-09-27T00:46:57;9.80;99.90
20528;DHT22;23612;50.894;10.700;2022-09-27T00:49:40;9.90;99.90
20528;DHT22;23612;50.894;10.700;2022-09-27T00:52:12;9.90;99.90
20528;DHT22;23612;50.894;10.700;2022-09-27T00:54:42;9.90;99.90
20528;DHT22;23612;50.894;10.700;2022-09-27T00:57:09;9.80;99.90
20528;DHT22;23612;50.894;10.700;2022-09-27T00:59:40;9.80;99.90
20528;DHT22;23612;50.894;10.700;2022-09-27T01:02:10;9.80;99.90
20528;DHT22;23612;50.894;10.700;2022-09-27T01:04:37;9.80;99.90
20528;DHT22;23612;50.894;10.700;2022-09-27T01:07:04;9.80;99.90
20528;DHT22;23612;50.894;10.700;2022-09-27T01:09:29;9.80;99.90
20528;DHT22;23612;50.894;10.700;2022-09-27T01:12:16;9.80;99.90
20528;DHT22;23612;50.894;10.700;2022-09-27T01:31:41;9.80;99.90
20528;DHT22;23612;50.894;10.700;2022-09-27T01:34:25;9.80;99.90
20528;DHT22;23612;50.894;10.700;2022-09-27T01:39:59;9.80;99.90
20528;DHT22;23612;50.894;10.700;2022-09-27T01:42:55;9.80;99.90
20528;DHT22;23612;50.894;10.700;2022-09-27T01:45:32;9.80;99.90
20528;DHT22;23612;50.894;10.700;2022-09-27T01:48:02;9.80;99.90
20528;DHT22;23612;50.894;10.700;2022-09-27T01:50:39;9.80;99.90
20528;DHT22;23612;50.894;10.700;2022-09-27T01:53:11;9.80;99.90
20528;DHT22;23612;50.894;10.700;2022-09-27T01:55:39;9.80;99.90
20528;DHT22;23612;50.894;10.700;2022-09-27T01:58:21;9.80;99.90
20528;DHT22;23612;50.894;10.700;2022-09-27T02:00:49;9.80;99.90
20528;DHT22;23612;50.894;10.700;2022-09-27T02:03:21;9.80;99.90
20528;DHT22;23612;50.894;10.700;2022-09-27T02:06:15;9.70;99.90
20528;DHT22;23612;50.894;10.700;2022-09-27T02:08:44;9.70;99.90
20528;DHT22;23612;50.894;10.700;2022-09-27T02:11:13;9.70;99.90
20528;DHT22;23612;50.894;10.700;2022-09-27T02:16:43;9.70;99.90
20528;DHT22;23612;50.894;10.700;2022-09-27T02:19:29;9.80;99.90
20528;DHT22;23612;50.894;10.700;2022-09-27T02:22:19;9.70;99.90
20528;DHT22;23612;50.894;10.700;2022-09-27T02:24:53;9.70;99.90
20528;DHT22;23612;50.894;10.700;2022-09-27T02:27:35;9.70;99.90
20528;DHT22;23612;50.894;10.700;2022-09-27T02:30:12;9.70;99.90
20528;DHT22;23612;50.894;10.700;2022-09-27T02:32:38;9.70;99.90
20528;DHT22;23612;50.894;10.700;2022-09-27T02:35:12;9.80;99.90
20528;DHT22;23612;50.894;10.700;2022-09-27T02:37:39;9.80;99.90
20528;DHT22;23612;50.894;10.700;2022-09-27T02:40:05;9.80;99.90
20528;DHT22;23612;50.894;10.700;2022-09-27T02:42:32;9.80;99.90
20528;DHT22;23612;50.894;10.700;2022-09-27T02:44:58;9.80;99.90
20528;DHT22;23612;50.894;10.700;2022-09-27T02:47:53;9.80;99.90
20528;DHT22;23612;50.894;10.700;2022-09-27T02:50:40;9.80;99.90
20528;DHT22;23612;50.894;10.700;2022-09-27T02:53:30;9.80;99.90
20528;DHT22;23612;50.894;10.700;2022-09-27T02:56:24;9.80;99.90
20528;DHT22;23612;50.894;10.700;2022-09-27T02:59:14;9.80;99.90
20528;DHT22;23612;50.894;10.700;2022-09-27T03:01:50;9.80;99.90
20528;DHT22;23612;50.894;10.700;2022-09-27T03:04:38;9.80;99.90
20528;DHT22;23612;50.894;10.700;2022-09-27T03:07:06;9.90;99.90
20528;DHT22;23612;50.894;10.700;2022-09-27T03:09:49;9.90;99.90
20528;DHT22;23612;50.894;10.700;2022-09-27T03:12:16;9.80;99.90
20528;DHT22;23612;50.894;10.700;2022-09-27T03:14:47;9.90;99.90
20528;DHT22;23612;50.894;10.700;2022-09-27T03:17:13;9.90;99.90
20528;DHT22;23612;50.894;10.700;2022-09-27T03:19:38;9.80;99.90
20528;DHT22;23612;50.894;10.700;2022-09-27T03:22:04;9.80;99.90
20528;DHT22;23612;50.894;10.700;2022-09-27T03:24:29;9.80;99.90
20528;DHT22;23612;50.894;10.700;2022-09-27T03:26:55;9.90;99.90
20528;DHT22;23612;50.894;10.700;2022-09-27T03:29:21;9.90;99.90
20528;DHT22;23612;50.894;10.700;2022-09-27T03:31:46;9.90;99.90
20528;DHT22;23612;50.894;10.700;2022-09-27T03:34:12;9.90;99.90
20528;DHT22;23612;50.894;10.700;2022-09-27T03:36:37;9.90;99.90
20528;DHT22;23612;50.894;10.700;2022-09-27T03:39:03;9.90;99.90
20528;DHT22;23612;50.894;10.700;2022-09-27T03:41:28;9.90;99.90
20528;DHT22;23612;50.894;10.700;2022-09-27T03:43:54;9.90;99.90
20528;DHT22;23612;50.894;10.700;2022-09-27T03:46:22;9.90;99.90
20528;DHT22;23612;50.894;10.700;2022-09-27T03:48:47;9.90;99.90
20528;DHT22;23612;50.894;10.700;2022-09-27T03:51:13;9.90;99.90
20528;DHT22;23612;50.894;10.700;2022-09-27T03:53:38;9.90;99.90
20528;DHT22;23612;50.894;10.700;2022-09-27T03:56:04;9.90;99.90
20528;DHT22;23612;50.894;10.700;2022-09-27T03:58:29;9.90;99.90
20528;DHT22;23612;50.894;10.700;2022-09-27T04:00:55;9.90;99.90
20528;DHT22;23612;50.894;10.700;2022-09-27T04:03:20;9.90;99.90
20528;DHT22;23612;50.894;10.700;2022-09-27T04:05:46;9.90;99.90
20528;DHT22;23612;50.894;10.700;2022-09-27T04:08:11;9.90;99.90
20528;DHT22;23612;50.894;10.700;2022-09-27T04:10:37;9.90;99.90
20528;DHT22;23612;50.894;10.700;2022-09-27T04:13:03;9.90;99.90
20528;DHT22;23612;50.894;10.700;2022-09-27T04:15:29;9.80;99.90
20528;DHT22;23612;50.894;10.700;2022-09-27T04:17:54;9.80;99.90
20528;DHT22;23612;50.894;10.700;2022-09-27T04:20:20;9.80;99.90
20528;DHT22;23612;50.894;10.700;2022-09-27T04:22:45;9.80;99.90
20528;DHT22;23612;50.894;10.700;2022-09-27T04:25:11;9.80;99.90
20528;DHT22;23612;50.894;10.700;2022-09-27T04:27:37;9.80;99.90
20528;DHT22;23612;50.894;10.700;2022-09-27T04:30:03;9.80;99.90
20528;DHT22;23612;50.894;10.700;2022-09-27T04:32:29;9.90;99.90
20528;DHT22;23612;50.894;10.700;2022-09-27T04:34:55;9.90;99.90
20528;DHT22;23612;50.894;10.700;2022-09-27T04:37:39;9.90;99.90
20528;DHT22;23612;50.894;10.700;2022-09-27T04:40:06;9.90;99.90
20528;DHT22;23612;50.894;10.700;2022-09-27T04:42:31;9.90;99.90
20528;DHT22;23612;50.894;10.700;2022-09-27T04:44:58;9.90;99.90
20528;DHT22;23612;50.894;10.700;2022-09-27T04:47:23;9.90;99.90
20528;DHT22;23612;50.894;10.700;2022-09-27T04:49:49;9.90;99.90
20528;DHT22;23612;50.894;10.700;2022-09-27T04:52:14;9.80;99.90
20528;DHT22;23612;50.894;10.700;2022-09-27T04:54:40;9.90;99.90
20528;DHT22;23612;50.894;10.700;2022-09-27T04:57:06;9.90;99.90
20528;DHT22;23612;50.894;10.700;2022-09-27T04:59:32;9.90;99.90
20528;DHT22;23612;50.894;10.700;2022-09-27T05:01:57;9.90;99.90
20528;DHT22;23612;50.894;10.700;2022-09-27T05:04:26;9.80;99.90
20528;DHT22;23612;50.894;10.700;2022-09-27T05:06:52;9.90;99.90
20528;DHT22;23612;50.894;10.700;2022-09-27T05:09:18;9.80;99.90
20528;DHT22;23612;50.894;10.700;2022-09-27T05:11:43;9.80;99.90
20528;DHT22;23612;50.894;10.700;2022-09-27T05:14:09;9.70;99.90
20528;DHT22;23612;50.894;10.700;2022-09-27T05:16:34;9.70;99.90
20528;DHT22;23612;50.894;10.700;2022-09-27T05:19:01;9.60;99.90
20528;DHT22;23612;50.894;10.700;2022-09-27T05:21:26;9.60;99.90
20528;DHT22;23612;50.894;10.700;2022-09-27T05:23:52;9.60;99.90
20528;DHT22;23612;50.894;10.700;2022-09-27T05:26:18;9.50;99.90
20528;DHT22;23612;50.894;10.700;2022-09-27T05:28:44;9.50;99.90
20528;DHT22;23612;50.894;10.700;2022-09-27T05:31:12;9.50;99.90
20528;DHT22;23612;50.894;10.700;2022-09-27T05:33:38;9.40;99.90
20528;DHT22;23612;50.894;10.700;2022-09-27T05:36:04;9.50;99.90
20528;DHT22;23612;50.894;10.700;2022-09-27T05:38:30;9.50;99.90
20528;DHT22;23612;50.894;10.700;2022-09-27T05:40:55;9.50;99.90
20528;DHT22;23612;50.894;10.700;2022-09-27T05:43:21;9.50;99.90
20528;DHT22;23612;50.894;10.700;2022-09-27T05:45:46;9.50;99.90
20528;DHT22;23612;50.894;10.700;2022-09-27T05:48:12;9.50;99.90
20528;DHT22;23612;50.894;10.700;2022-09-27T05:50:38;9.50;99.90
20528;DHT22;23612;50.894;10.700;2022-09-27T05:53:04;9.50;99.90
20528;DHT22;23612;50.894;10.700;2022-09-27T05:55:30;9.50;99.90
20528;DHT22;23612;50.894;10.700;2022-09-27T05:57:56;9.40;99.90
20528;DHT22;23612;50.894;10.700;2022-09-27T06:00:22;9.40;99.90
20528;DHT22;23612;50.894;10.700;2022-09-27T06:02:57;9.40;99.90
20528;DHT22;23612;50.894;10.700;2022-09-27T06:05:23;9.40;99.90
20528;DHT22;23612;50.894;10.700;2022-09-27T06:07:51;9.30;99.90
20528;DHT22;23612;50.894;10.700;2022-09-27T06:10:18;9.40;99.90
20528;DHT22;23612;50.894;10.700;2022-09-27T06:12:44;9.40;99.90
20528;DHT22;23612;50.894;10.700;2022-09-27T06:15:09;9.30;99.90
20528;DHT22;23612;50.894;10.700;2022-09-27T06:17:35;9.20;99.90
20528;DHT22;23612;50.894;10.700;2022-09-27T06:20:01;9.20;99.90
20528;DHT22;23612;50.894;10.700;2022-09-27T06:22:27;9.10;99.90
20528;DHT22;23612;50.894;10.700;2022-09-27T06:24:52;9.10;99.90
20528;DHT22;23612;50.894;10.700;2022-09-27T06:27:18;9.10;99.90
20528;DHT22;23612;50.894;10.700;2022-09-27T06:29:43;9.20;99.90
20528;DHT22;23612;50.894;10.700;2022-09-27T06:32:09;9.10;99.90
20528;DHT22;23612;50.894;10.700;2022-09-27T06:34:35;9.10;99.90
20528;DHT22;23612;50.894;10.700;2022-09-27T06:37:01;9.10;99.90
20528;DHT22;23612;50.894;10.700;2022-09-27T06:39:26;9.20;99.90
20528;DHT22;23612;50.894;10.700;2022-09-27T06:41:53;9.20;99.90
20528;DHT22;23612;50.894;10.700;2022-09-27T06:44:22;9.20;99.90
20528;DHT22;23612;50.894;10.700;2022-09-27T06:46:49;9.20;99.90
20528;DHT22;23612;50.894;10.700;2022-09-27T06:49:14;9.20;99.90
20528;DHT22;23612;50.894;10.700;2022-09-27T06:51:40;9.20;99.90
20528;DHT22;23612;50.894;10.700;2022-09-27T06:54:06;9.30;99.90
20528;DHT22;23612;50.894;10.700;2022-09-27T06:56:32;9.30;99.90
20528;DHT22;23612;50.894;10.700;2022-09-27T06:58:57;9.50;99.90
20528;DHT22;23612;50.894;10.700;2022-09-27T07:01:45;9.70;99.90
20528;DHT22;23612;50.894;10.700;2022-09-27T07:04:11;9.80;99.90
20528;DHT22;23612;50.894;10.700;2022-09-27T07:06:37;9.90;99.90
20528;DHT22;23612;50.894;10.700;2022-09-27T07:09:03;10.00;99.90
20528;DHT22;23612;50.894;10.700;2022-09-27T07:11:33;10.10;99.90
20528;DHT22;23612;50.894;10.700;2022-09-27T07:14:01;10.10;99.90
20528;DHT22;23612;50.894;10.700;2022-09-27T07:16:28;10.10;99.90
20528;DHT22;23612;50.894;10.700;2022-09-27T07:18:53;10.20;99.90
20528;DHT22;23612;50.894;10.700;2022-09-27T07:21:19;10.30;99.90
20528;DHT22;23612;50.894;10.700;2022-09-27T07:23:44;10.20;99.90
20528;DHT22;23612;50.894;10.700;2022-09-27T07:26:10;10.30;99.90
20528;DHT22;23612;50.894;10.700;2022-09-27T07:28:37;10.20;99.90
20528;DHT22;23612;50.894;10.700;2022-09-27T07:31:03;10.30;99.90
20528;DHT22;23612;50.894;10.700;2022-09-27T07:33:29;10.30;99.90
20528;DHT22;23612;50.894;10.700;2022-09-27T07:35:55;10.30;99.90
20528;DHT22;23612;50.894;10.700;2022-09-27T07:38:20;10.20;99.90
20528;DHT22;23612;50.894;10.700;2022-09-27T07:40:46;10.10;99.90
20528;DHT22;23612;50.894;10.700;2022-09-27T07:43:12;10.10;99.90
20528;DHT22;23612;50.894;10.700;2022-09-27T07:45:38;10.00;99.90
20528;DHT22;23612;50.894;10.700;2022-09-27T07:48:05;10.00;99.90
20528;DHT22;23612;50.894;10.700;2022-09-27T07:50:30;9.90;99.90
20528;DHT22;23612;50.894;10.700;2022-09-27T07:52:56;9.90;99.90
20528;DHT22;23612;50.894;10.700;2022-09-27T07:55:22;9.80;99.90
20528;DHT22;23612;50.894;10.700;2022-09-27T07:57:48;9.80;99.90
20528;DHT22;23612;50.894;10.700;2022-09-27T08:00:16;9.80;99.90
20528;DHT22;23612;50.894;10.700;2022-09-27T08:02:43;9.70;99.90
20528;DHT22;23612;50.894;10.700;2022-09-27T08:05:09;9.60;99.90
20528;DHT22;23612;50.894;10.700;2022-09-27T08:07:35;9.70;99.90
20528;DHT22;23612;50.894;10.700;2022-09-27T08:10:00;9.60;99.90
20528;DHT22;23612;50.894;10.700;2022-09-27T08:12:26;9.60;99.90
20528;DHT22;23612;50.894;10.700;2022-09-27T08:14:51;9.60;99.90
20528;DHT22;23612;50.894;10.700;2022-09-27T08:17:17;9.60;99.90
20528;DHT22;23612;50.894;10.700;2022-09-27T08:19:44;9.60;99.90
20528;DHT22;23612;50.894;10.700;2022-09-27T08:22:10;9.60;99.90
20528;DHT22;23612;50.894;10.700;2022-09-27T08:24:38;9.50;99.90
20528;DHT22;23612;50.894;10.700;2022-09-27T08:27:04;9.60;99.90
20528;DHT22;23612;50.894;10.700;2022-09-27T08:29:31;9.60;99.90
20528;DHT22;23612;50.894;10.700;2022-09-27T08:31:56;9.50;99.90
20528;DHT22;23612;50.894;10.700;2022-09-27T08:34:22;9.60;99.90
20528;DHT22;23612;50.894;10.700;2022-09-27T08:36:48;9.60;99.90
20528;DHT22;23612;50.894;10.700;2022-09-27T08:39:13;9.60;99.90
20528;DHT22;23612;50.894;10.700;2022-09-27T08:45:11;9.70;99.90
20528;DHT22;23612;50.894;10.700;2022-09-27T08:47:47;9.80;99.90
20528;DHT22;23612;50.894;10.700;2022-09-27T08:50:24;9.90;99.90
20528;DHT22;23612;50.894;10.700;2022-09-27T08:53:16;9.90;99.90
20528;DHT22;23612;50.894;10.700;2022-09-27T08:55:48;9.90;99.90
20528;DHT22;23612;50.894;10.700;2022-09-27T08:58:29;10.10;99.90
20528;DHT22;23612;50.894;10.700;2022-09-27T09:00:59;10.20;99.90
20528;DHT22;23612;50.894;10.700;2022-09-27T09:03:29;10.40;99.90
20528;DHT22;23612;50.894;10.700;2022-09-27T09:08:40;10.50;99.90
20528;DHT22;23612;50.894;10.700;2022-09-27T09:17:13;10.70;99.90
20528;DHT22;23612;50.894;10.700;2022-09-27T09:20:13;10.90;99.90
20528;DHT22;23612;50.894;10.700;2022-09-27T09:29:06;10.50;99.90
20528;DHT22;23612;50.894;10.700;2022-09-27T09:34:28;10.10;99.90
20528;DHT22;23612;50.894;10.700;2022-09-27T09:37:31;10.20;99.90
20528;DHT22;23612;50.894;10.700;2022-09-27T09:40:33;10.60;99.90
20528;DHT22;23612;50.894;10.700;2022-09-27T09:43:09;11.90;99.90
20528;DHT22;23612;50.894;10.700;2022-09-27T09:45:47;13.50;99.90
20528;DHT22;23612;50.894;10.700;2022-09-27T09:48:29;13.90;99.90
20528;DHT22;23612;50.894;10.700;2022-09-27T09:50:59;13.80;99.90
20528;DHT22;23612;50.894;10.700;2022-09-27T09:56:07;13.00;99.90
20528;DHT22;23612;50.894;10.700;2022-09-27T09:58:43;12.80;99.90
20528;DHT22;23612;50.894;10.700;2022-09-27T10:01:51;12.70;99.90
20528;DHT22;23612;50.894;10.700;2022-09-27T10:04:17;12.80;99.90
20528;DHT22;23612;50.894;10.700;2022-09-27T10:06:44;13.10;99.90
20528;DHT22;23612;50.894;10.700;2022-09-27T10:09:13;12.70;99.90
20528;DHT22;23612;50.894;10.700;2022-09-27T10:11:44;12.40;99.90
20528;DHT22;23612;50.894;10.700;2022-09-27T10:14:14;12.10;99.90
20528;DHT22;23612;50.894;10.700;2022-09-27T10:16:43;12.30;99.90
20528;DHT22;23612;50.894;10.700;2022-09-27T10:19:11;12.40;99.90
20528;DHT22;23612;50.894;10.700;2022-09-27T10:21:41;12.20;99.90
20528;DHT22;23612;50.894;10.700;2022-09-27T10:24:12;12.10;99.90
20528;DHT22;23612;50.894;10.700;2022-09-27T10:26:40;11.90;99.90
20528;DHT22;23612;50.894;10.700;2022-09-27T10:29:28;11.70;99.90
20528;DHT22;23612;50.894;10.700;2022-09-27T10:31:55;11.40;99.90
20528;DHT22;23612;50.894;10.700;2022-09-27T10:34:30;11.40;99.90
20528;DHT22;23612;50.894;10.700;2022-09-27T10:39:31;11.30;99.90
20528;DHT22;23612;50.894;10.700;2022-09-27T10:41:56;11.40;99.90
20528;DHT22;23612;50.894;10.700;2022-09-27T10:44:25;11.60;99.90
20528;DHT22;23612;50.894;10.700;2022-09-27T10:46:57;11.90;99.90
20528;DHT22;23612;50.894;10.700;2022-09-27T10:49:30;12.60;99.90
20528;DHT22;23612;50.894;10.700;2022-09-27T10:52:04;13.60;99.90
20528;DHT22;23612;50.894;10.700;2022-09-27T10:54:38;14.70;99.90
20528;DHT22;23612;50.894;10.700;2022-09-27T10:59:42;15.30;99.90
20528;DHT22;23612;50.894;10.700;2022-09-27T11:02:29;15.50;99.90
20528;DHT22;23612;50.894;10.700;2022-09-27T11:05:13;15.30;99.90
20528;DHT22;23612;50.894;10.700;2022-09-27T11:07:49;15.10;99.90
20528;DHT22;23612;50.894;10.700;2022-09-27T11:13:18;15.70;99.90
20528;DHT22;23612;50.894;10.700;2022-09-27T11:21:03;15.80;99.90
20528;DHT22;23612;50.894;10.700;2022-09-27T11:23:51;16.00;99.90
20528;DHT22;23612;50.894;10.700;2022-09-27T11:26:35;16.20;99.90
20528;DHT22;23612;50.894;10.700;2022-09-27T11:29:22;16.70;99.90
20528;DHT22;23612;50.894;10.700;2022-09-27T11:32:15;17.30;99.90
20528;DHT22;23612;50.894;10.700;2022-09-27T11:37:21;18.40;99.90
20528;DHT22;23612;50.894;10.700;2022-09-27T11:42:48;19.00;99.90
20528;DHT22;23612;50.894;10.700;2022-09-27T11:48:37;18.60;99.90
20528;DHT22;23612;50.894;10.700;2022-09-27T11:54:34;17.00;99.90
20528;DHT22;23612;50.894;10.700;2022-09-27T11:59:55;17.30;99.90
20528;DHT22;23612;50.894;10.700;2022-09-27T12:10:58;15.10;99.90
20528;DHT22;23612;50.894;10.700;2022-09-27T12:13:35;15.00;99.90
20528;DHT22;23612;50.894;10.700;2022-09-27T12:16:03;14.80;99.90
20528;DHT22;23612;50.894;10.700;2022-09-27T12:18:37;14.60;99.90
20528;DHT22;23612;50.894;10.700;2022-09-27T12:21:08;14.40;99.90
20528;DHT22;23612;50.894;10.700;2022-09-27T12:23:47;14.20;99.90
20528;DHT22;23612;50.894;10.700;2022-09-27T12:26:21;14.10;99.90
20528;DHT22;23612;50.894;10.700;2022-09-27T12:29:04;14.80;99.90
20528;DHT22;23612;50.894;10.700;2022-09-27T12:34:27;16.60;99.90
20528;DHT22;23612;50.894;10.700;2022-09-27T12:37:13;17.20;99.90
20528;DHT22;23612;50.894;10.700;2022-09-27T12:39:44;16.60;99.90
20528;DHT22;23612;50.894;10.700;2022-09-27T12:42:29;16.80;99.90
20528;DHT22;23612;50.894;10.700;2022-09-27T12:44:56;17.20;99.90
20528;DHT22;23612;50.894;10.700;2022-09-27T12:50:29;17.80;99.90
20528;DHT22;23612;50.894;10.700;2022-09-27T12:53:16;17.60;99.90
20528;DHT22;23612;50.894;10.700;2022-09-27T12:58:47;15.60;99.90
20528;DHT22;23612;50.894;10.700;2022-09-27T13:04:22;14.00;99.90
20528;DHT22;23612;50.894;10.700;2022-09-27T13:09:54;13.80;99.90
20528;DHT22;23612;50.894;10.700;2022-09-27T13:12:26;13.70;99.90
20528;DHT22;23612;50.894;10.700;2022-09-27T13:14:59;13.30;99.90
20528;DHT22;23612;50.894;10.700;2022-09-27T13:22:53;12.50;99.90
20528;DHT22;23612;50.894;10.700;2022-09-27T13:25:53;12.20;99.90
20528;DHT22;23612;50.894;10.700;2022-09-27T13:31:09;11.90;99.90
20528;DHT22;23612;50.894;10.700;2022-09-27T13:33:44;12.00;99.90
20528;DHT22;23612;50.894;10.700;2022-09-27T13:36:15;12.20;99.90
20528;DHT22;23612;50.894;10.700;2022-09-27T13:41:26;12.10;99.90
20528;DHT22;23612;50.894;10.700;2022-09-27T13:44:00;12.00;99.90
20528;DHT22;23612;50.894;10.700;2022-09-27T13:46:30;11.90;99.90
20528;DHT22;23612;50.894;10.700;2022-09-27T13:49:15;12.00;99.90
20528;DHT22;23612;50.894;10.700;2022-09-27T13:51:50;12.20;99.90
20528;DHT22;23612;50.894;10.700;2022-09-27T13:56:59;12.10;99.90
20528;DHT22;23612;50.894;10.700;2022-09-27T13:59:41;12.00;99.90
20528;DHT22;23612;50.894;10.700;2022-09-27T14:02:18;11.90;99.90
20528;DHT22;23612;50.894;10.700;2022-09-27T14:04:51;11.80;99.90
20528;DHT22;23612;50.894;10.700;2022-09-27T14:07:22;11.70;99.90
20528;DHT22;23612;50.894;10.700;2022-09-27T14:09:52;11.80;99.90
20528;DHT22;23612;50.894;10.700;2022-09-27T14:12:21;11.80;99.90
20528;DHT22;23612;50.894;10.700;2022-09-27T14:14:50;11.80;99.90
20528;DHT22;23612;50.894;10.700;2022-09-27T14:17:17;11.90;99.90
20528;DHT22;23612;50.894;10.700;2022-09-27T14:19:43;11.90;99.90
20528;DHT22;23612;50.894;10.700;2022-09-27T14:22:17;11.90;99.90
20528;DHT22;23612;50.894;10.700;2022-09-27T14:24:48;11.90;99.90
20528;DHT22;23612;50.894;10.700;2022-09-27T14:27:25;11.90;99.90
20528;DHT22;23612;50.894;10.700;2022-09-27T14:29:59;12.10;99.90
20528;DHT22;23612;50.894;10.700;2022-09-27T14:32:33;12.20;99.90
20528;DHT22;23612;50.894;10.700;2022-09-27T14:35:15;12.30;99.90
20528;DHT22;23612;50.894;10.700;2022-09-27T14:38:04;12.30;99.90
20528;DHT22;23612;50.894;10.700;2022-09-27T14:40:53;12.30;99.90
20528;DHT22;23612;50.894;10.700;2022-09-27T14:43:20;12.30;99.90
20528;DHT22;23612;50.894;10.700;2022-09-27T14:45:51;12.20;99.90
20528;DHT22;23612;50.894;10.700;2022-09-27T14:50:53;12.00;99.90
20528;DHT22;23612;50.894;10.700;2022-09-27T14:53:24;11.90;99.90
20528;DHT22;23612;50.894;10.700;2022-09-27T14:55:50;11.70;99.90
20528;DHT22;23612;50.894;10.700;2022-09-27T14:58:20;11.60;99.90
20528;DHT22;23612;50.894;10.700;2022-09-27T15:00:47;11.30;99.90
20528;DHT22;23612;50.894;10.700;2022-09-27T15:03:26;11.20;99.90
20528;DHT22;23612;50.894;10.700;2022-09-27T15:05:52;11.00;99.90
20528;DHT22;23612;50.894;10.700;2022-09-27T15:08:22;10.90;99.90
20528;DHT22;23612;50.894;10.700;2022-09-27T15:10:49;10.80;99.90
20528;DHT22;23612;50.894;10.700;2022-09-27T15:13:17;10.80;99.90
20528;DHT22;23612;50.894;10.700;2022-09-27T15:15:44;10.90;99.90
20528;DHT22;23612;50.894;10.700;2022-09-27T15:18:40;10.90;99.90
20528;DHT22;23612;50.894;10.700;2022-09-27T15:21:11;11.00;99.90
20528;DHT22;23612;50.894;10.700;2022-09-27T15:23:40;11.10;99.90
20528;DHT22;23612;50.894;10.700;2022-09-27T15:26:22;11.00;99.90
20528;DHT22;23612;50.894;10.700;2022-09-27T15:28:50;10.90;99.90
20528;DHT22;23612;50.894;10.700;2022-09-27T15:31:34;10.80;99.90
20528;DHT22;23612;50.894;10.700;2022-09-27T15:34:01;10.80;99.90
20528;DHT22;23612;50.894;10.700;2022-09-27T15:36:55;10.80;99.90
20528;DHT22;23612;50.894;10.700;2022-09-27T15:39:31;10.70;99.90
20528;DHT22;23612;50.894;10.700;2022-09-27T15:42:13;10.60;99.90
20528;DHT22;23612;50.894;10.700;2022-09-27T15:49:56;10.40;99.90
20528;DHT22;23612;50.894;10.700;2022-09-27T15:52:42;10.40;99.90
20528;DHT22;23612;50.894;10.700;2022-09-27T15:55:15;10.40;99.90
20528;DHT22;23612;50.894;10.700;2022-09-27T15:57:43;10.30;99.90
20528;DHT22;23612;50.894;10.700;2022-09-27T16:00:12;10.30;99.90
20528;DHT22;23612;50.894;10.700;2022-09-27T16:02:40;10.30;99.90
20528;DHT22;23612;50.894;10.700;2022-09-27T16:05:06;10.30;99.90
20528;DHT22;23612;50.894;10.700;2022-09-27T16:07:31;10.30;99.90
20528;DHT22;23612;50.894;10.700;2022-09-27T16:09:57;10.20;99.90
20528;DHT22;23612;50.894;10.700;2022-09-27T16:12:22;10.20;99.90
20528;DHT22;23612;50.894;10.700;2022-09-27T16:14:48;10.20;99.90
20528;DHT22;23612;50.894;10.700;2022-09-27T16:17:14;10.20;99.90
20528;DHT22;23612;50.894;10.700;2022-09-27T16:19:39;10.20;99.90
20528;DHT22;23612;50.894;10.700;2022-09-27T16:22:05;10.10;99.90
20528;DHT22;23612;50.894;10.700;2022-09-27T16:24:31;10.10;99.90
20528;DHT22;23612;50.894;10.700;2022-09-27T16:26:57;10.00;99.90
20528;DHT22;23612;50.894;10.700;2022-09-27T16:29:23;10.00;99.90
20528;DHT22;23612;50.894;10.700;2022-09-27T16:31:48;10.00;99.90
20528;DHT22;23612;50.894;10.700;2022-09-27T16:34:15;9.90;99.90
20528;DHT22;23612;50.894;10.700;2022-09-27T16:36:41;9.90;99.90
20528;DHT22;23612;50.894;10.700;2022-09-27T16:39:09;9.90;99.90
20528;DHT22;23612;50.894;10.700;2022-09-27T16:41:37;9.80;99.90
20528;DHT22;23612;50.894;10.700;2022-09-27T16:44:13;9.80;99.90
20528;DHT22;23612;50.894;10.700;2022-09-27T16:46:42;9.70;99.90
20528;DHT22;23612;50.894;10.700;2022-09-27T16:49:10;9.70;99.90
20528;DHT22;23612;50.894;10.700;2022-09-27T16:51:56;9.60;99.90
20528;DHT22;23612;50.894;10.700;2022-09-27T16:54:26;9.60;99.90
20528;DHT22;23612;50.894;10.700;2022-09-27T16:56:53;9.50;99.90
20528;DHT22;23612;50.894;10.700;2022-09-27T16:59:19;9.50;99.90
20528;DHT22;23612;50.894;10.700;2022-09-27T17:01:45;9.50;99.90
20528;DHT22;23612;50.894;10.700;2022-09-27T17:04:11;9.40;99.90
20528;DHT22;23612;50.894;10.700;2022-09-27T17:06:38;9.40;99.90
20528;DHT22;23612;50.894;10.700;2022-09-27T17:09:04;9.30;99.90
20528;DHT22;23612;50.894;10.700;2022-09-27T17:11:30;9.30;99.90
20528;DHT22;23612;50.894;10.700;2022-09-27T17:13:56;9.20;99.90
20528;DHT22;23612;50.894;10.700;2022-09-27T17:16:22;9.20;99.90
20528;DHT22;23612;50.894;10.700;2022-09-27T17:18:47;9.20;99.90
20528;DHT22;23612;50.894;10.700;2022-09-27T17:21:13;9.10;99.90
20528;DHT22;23612;50.894;10.700;2022-09-27T17:23:39;9.10;99.90
20528;DHT22;23612;50.894;10.700;2022-09-27T17:26:07;9.00;99.90
20528;DHT22;23612;50.894;10.700;2022-09-27T17:28:34;9.00;99.90
20528;DHT22;23612;50.894;10.700;2022-09-27T17:31:02;8.90;99.90
20528;DHT22;23612;50.894;10.700;2022-09-27T17:33:27;8.90;99.90
20528;DHT22;23612;50.894;10.700;2022-09-27T17:35:58;8.90;99.90
20528;DHT22;23612;50.894;10.700;2022-09-27T17:38:24;8.90;99.90
20528;DHT22;23612;50.894;10.700;2022-09-27T17:40:59;8.90;99.90
20528;DHT22;23612;50.894;10.700;2022-09-27T17:43:25;9.00;99.90
20528;DHT22;23612;50.894;10.700;2022-09-27T17:45:51;9.00;99.90
20528;DHT22;23612;50.894;10.700;2022-09-27T17:48:16;9.00;99.90